sensor_id;sensor_type;location;lat;lon;timestamp;pressure;altitude;pressure_sealevel;temperature;humidity
28079;BME280;15388;42.238;24.684;2023-04-29T00:00:58;99656.38;;;7.89;97.57
28079;BME280;15388;42.238;24.684;2023-04-29T00:03:24;99656.06;;;7.81;97.77
28079;BME280;15388;42.238;24.684;2023-04-29T00:05:52;99652.94;;;7.76;98.66
28079;BME280;15388;42.238;24.684;2023-04-29T00:08:18;99658.63;;;7.83;98.09
28079;BME280;15388;42.238;24.684;2023-04-29T00:10:45;99653.94;;;7.86;98.12
28079;BME280;15388;42.238;24.684;2023-04-29T00:13:10;99659.84;;;7.90;97.81
28079;BME280;15388;42.238;24.684;2023-04-29T00:15:37;99650.31;;;7.87;98.33
28079;BME280;15388;42.238;24.684;2023-04-29T00:18:03;99642.56;;;7.73;98.82
28079;BME280;15388;42.238;24.684;2023-04-29T00:20:28;99650.50;;;7.61;100.00
28079;BME280;15388;42.238;24.684;2023-04-29T00:22:53;99654.31;;;7.57;100.00
28079;BME280;15388;42.238;24.684;2023-04-29T00:25:19;99654.31;;;7.57;100.00
28079;BME280;15388;42.238;24.684;2023-04-29T00:27:44;99656.88;;;7.59;100.00
28079;BME280;15388;42.238;24.684;2023-04-29T00:30:10;99655.41;;;7.55;100.00
28079;BME280;15388;42.238;24.684;2023-04-29T00:32:35;99660.28;;;7.48;100.00
28079;BME280;15388;42.238;24.684;2023-04-29T00:35:01;99669.81;;;7.26;100.00
28079;BME280;15388;42.238;24.684;2023-04-29T00:37:28;99659.19;;;7.14;100.00
28079;BME280;15388;42.238;24.684;2023-04-29T00:39:53;99657.22;;;7.05;100.00
28079;BME280;15388;42.238;24.684;2023-04-29T00:42:19;99659.44;;;7.23;100.00
28079;BME280;15388;42.238;24.684;2023-04-29T00:44:44;99664.75;;;7.23;100.00
28079;BME280;15388;42.238;24.684;2023-04-29T00:47:10;99659.97;;;7.28;100.00
28079;BME280;15388;42.238;24.684;2023-04-29T00:49:37;99663.22;;;7.32;100.00
28079;BME280;15388;42.238;24.684;2023-04-29T00:52:03;99661.44;;;7.32;100.00
28079;BME280;15388;42.238;24.684;2023-04-29T00:54:30;99660.63;;;7.19;100.00
28079;BME280;15388;42.238;24.684;2023-04-29T00:56:55;99658.28;;;7.27;100.00
28079;BME280;15388;42.238;24.684;2023-04-29T00:59:23;99658.56;;;7.35;100.00
28079;BME280;15388;42.238;24.684;2023-04-29T01:01:56;99662.41;;;7.31;100.00
28079;BME280;15388;42.238;24.684;2023-04-29T01:04:23;99656.25;;;7.06;100.00
28079;BME280;15388;42.238;24.684;2023-04-29T01:12:19;99645.72;;;7.18;100.00
28079;BME280;15388;42.238;24.684;2023-04-29T01:14:53;99649.13;;;7.20;100.00
28079;BME280;15388;42.238;24.684;2023-04-29T01:17:24;99649.22;;;7.18;100.00
28079;BME280;15388;42.238;24.684;2023-04-29T01:19:54;99646.97;;;7.25;100.00
28079;BME280;15388;42.238;24.684;2023-04-29T01:22:20;99647.19;;;7.22;100.00
28079;BME280;15388;42.238;24.684;2023-04-29T01:24:46;99645.38;;;7.22;100.00
28079;BME280;15388;42.238;24.684;2023-04-29T01:27:31;99651.81;;;7.31;100.00
28079;BME280;15388;42.238;24.684;2023-04-29T01:32:45;99631.56;;;7.30;99.26
28079;BME280;15388;42.238;24.684;2023-04-29T01:37:54;99634.81;;;7.22;98.86
28079;BME280;15388;42.238;24.684;2023-04-29T01:43:33;99632.22;;;7.09;99.20
28079;BME280;15388;42.238;24.684;2023-04-29T01:46:01;99632.16;;;6.98;99.33
28079;BME280;15388;42.238;24.684;2023-04-29T01:48:28;99631.56;;;6.81;99.29
28079;BME280;15388;42.238;24.684;2023-04-29T01:50:55;99630.09;;;6.77;99.57
28079;BME280;15388;42.238;24.684;2023-04-29T01:53:20;99632.22;;;6.59;100.00
28079;BME280;15388;42.238;24.684;2023-04-29T01:55:46;99626.66;;;6.37;100.00
28079;BME280;15388;42.238;24.684;2023-04-29T01:58:11;99635.00;;;6.31;100.00
28079;BME280;15388;42.238;24.684;2023-04-29T02:00:38;99630.91;;;6.27;100.00
28079;BME280;15388;42.238;24.684;2023-04-29T02:03:03;99633.66;;;6.13;100.00
28079;BME280;15388;42.238;24.684;2023-04-29T02:05:29;99632.06;;;6.10;100.00
28079;BME280;15388;42.238;24.684;2023-04-29T02:07:58;99643.91;;;6.04;100.00
28079;BME280;15388;42.238;24.684;2023-04-29T02:10:23;99632.25;;;5.94;100.00
28079;BME280;15388;42.238;24.684;2023-04-29T02:12:49;99646.69;;;5.75;100.00
28079;BME280;15388;42.238;24.684;2023-04-29T02:15:14;99646.91;;;5.72;100.00
28079;BME280;15388;42.238;24.684;2023-04-29T02:17:39;99656.69;;;5.57;100.00
28079;BME280;15388;42.238;24.684;2023-04-29T02:20:06;99643.09;;;5.35;100.00
28079;BME280;15388;42.238;24.684;2023-04-29T02:22:31;99647.50;;;5.22;100.00
28079;BME280;15388;42.238;24.684;2023-04-29T02:24:57;99642.22;;;5.22;100.00
28079;BME280;15388;42.238;24.684;2023-04-29T02:27:22;99647.38;;;5.23;100.00
28079;BME280;15388;42.238;24.684;2023-04-29T02:29:48;99633.16;;;5.26;100.00
28079;BME280;15388;42.238;24.684;2023-04-29T02:32:14;99631.75;;;4.93;100.00
28079;BME280;15388;42.238;24.684;2023-04-29T02:34:40;99630.41;;;5.00;100.00
28079;BME280;15388;42.238;24.684;2023-04-29T02:37:05;99632.00;;;5.03;100.00
28079;BME280;15388;42.238;24.684;2023-04-29T02:39:30;99624.78;;;4.92;100.00
28079;BME280;15388;42.238;24.684;2023-04-29T02:41:56;99629.44;;;5.01;100.00
28079;BME280;15388;42.238;24.684;2023-04-29T02:44:22;99625.66;;;5.05;100.00
28079;BME280;15388;42.238;24.684;2023-04-29T02:46:48;99627.19;;;5.09;100.00
28079;BME280;15388;42.238;24.684;2023-04-29T02:49:13;99636.03;;;5.08;100.00
28079;BME280;15388;42.238;24.684;2023-04-29T02:51:38;99631.75;;;4.93;100.00
28079;BME280;15388;42.238;24.684;2023-04-29T02:54:05;99635.47;;;4.76;100.00
28079;BME280;15388;42.238;24.684;2023-04-29T02:56:31;99639.88;;;4.61;100.00
28079;BME280;15388;42.238;24.684;2023-04-29T02:58:56;99643.09;;;4.51;100.00
28079;BME280;15388;42.238;24.684;2023-04-29T03:01:22;99638.59;;;4.53;100.00
28079;BME280;15388;42.238;24.684;2023-04-29T03:03:48;99629.63;;;4.56;100.00
28079;BME280;15388;42.238;24.684;2023-04-29T03:06:13;99641.59;;;4.47;100.00
28079;BME280;15388;42.238;24.684;2023-04-29T03:08:40;99636.31;;;4.47;100.00
28079;BME280;15388;42.238;24.684;2023-04-29T03:11:05;99632.53;;;4.51;100.00
28079;BME280;15388;42.238;24.684;2023-04-29T03:13:31;99626.97;;;4.70;100.00
28079;BME280;15388;42.238;24.684;2023-04-29T03:15:56;99631.59;;;4.81;100.00
28079;BME280;15388;42.238;24.684;2023-04-29T03:18:23;99637.00;;;4.93;100.00
28079;BME280;15388;42.238;24.684;2023-04-29T03:20:49;99640.59;;;4.92;100.00
28079;BME280;15388;42.238;24.684;2023-04-29T03:23:14;99648.94;;;5.13;100.00
28079;BME280;15388;42.238;24.684;2023-04-29T03:25:40;99652.84;;;4.93;100.00
28079;BME280;15388;42.238;24.684;2023-04-29T03:28:05;99651.19;;;4.63;100.00
28079;BME280;15388;42.238;24.684;2023-04-29T03:30:32;99644.13;;;4.49;100.00
28079;BME280;15388;42.238;24.684;2023-04-29T03:32:57;99628.72;;;4.42;100.00
28079;BME280;15388;42.238;24.684;2023-04-29T03:35:23;99647.03;;;4.73;100.00
28079;BME280;15388;42.238;24.684;2023-04-29T03:37:48;99650.88;;;4.82;100.00
28079;BME280;15388;42.238;24.684;2023-04-29T03:40:14;99645.38;;;5.00;100.00
28079;BME280;15388;42.238;24.684;2023-04-29T03:42:39;99651.84;;;5.08;100.00
28079;BME280;15388;42.238;24.684;2023-04-29T03:45:05;99657.66;;;5.28;100.00
28079;BME280;15388;42.238;24.684;2023-04-29T03:47:31;99657.69;;;5.41;100.00
28079;BME280;15388;42.238;24.684;2023-04-29T03:49:56;99662.38;;;5.64;100.00
28079;BME280;15388;42.238;24.684;2023-04-29T03:52:22;99670.47;;;5.75;100.00
28079;BME280;15388;42.238;24.684;2023-04-29T03:54:47;99668.16;;;5.83;100.00
28079;BME280;15388;42.238;24.684;2023-04-29T03:57:13;99668.81;;;6.00;100.00
28079;BME280;15388;42.238;24.684;2023-04-29T03:59:38;99676.44;;;6.18;100.00
28079;BME280;15388;42.238;24.684;2023-04-29T04:02:04;99672.44;;;6.25;100.00
28079;BME280;15388;42.238;24.684;2023-04-29T04:04:29;99661.25;;;6.34;100.00
28079;BME280;15388;42.238;24.684;2023-04-29T04:06:55;99675.41;;;6.46;100.00
28079;BME280;15388;42.238;24.684;2023-04-29T04:09:20;99682.69;;;6.56;100.00
28079;BME280;15388;42.238;24.684;2023-04-29T04:11:47;99669.91;;;6.62;100.00
28079;BME280;15388;42.238;24.684;2023-04-29T04:14:12;99681.19;;;6.65;100.00
28079;BME280;15388;42.238;24.684;2023-04-29T04:16:38;99688.72;;;6.71;100.00
28079;BME280;15388;42.238;24.684;2023-04-29T04:19:05;99691.25;;;6.72;100.00
28079;BME280;15388;42.238;24.684;2023-04-29T04:21:31;99681.28;;;6.76;100.00
28079;BME280;15388;42.238;24.684;2023-04-29T04:23:56;99683.00;;;6.64;100.00
28079;BME280;15388;42.238;24.684;2023-04-29T04:26:22;99678.34;;;6.68;100.00
28079;BME280;15388;42.238;24.684;2023-04-29T04:28:47;99678.63;;;6.76;100.00
28079;BME280;15388;42.238;24.684;2023-04-29T04:31:13;99683.00;;;6.77;100.00
28079;BME280;15388;42.238;24.684;2023-04-29T04:33:41;99682.31;;;6.86;100.00
28079;BME280;15388;42.238;24.684;2023-04-29T04:36:06;99678.50;;;6.91;100.00
28079;BME280;15388;42.238;24.684;2023-04-29T04:38:32;99670.13;;;6.97;100.00
28079;BME280;15388;42.238;24.684;2023-04-29T04:40:58;99675.22;;;7.00;100.00
28079;BME280;15388;42.238;24.684;2023-04-29T04:43:23;99682.28;;;7.12;100.00
28079;BME280;15388;42.238;24.684;2023-04-29T04:45:49;99691.69;;;7.17;100.00
28079;BME280;15388;42.238;24.684;2023-04-29T04:48:14;99687.31;;;7.16;100.00
28079;BME280;15388;42.238;24.684;2023-04-29T04:50:40;99696.66;;;7.08;100.00
28079;BME280;15388;42.238;24.684;2023-04-29T04:53:05;99688.63;;;7.10;100.00
28079;BME280;15388;42.238;24.684;2023-04-29T04:55:31;99700.50;;;7.04;100.00
28079;BME280;15388;42.238;24.684;2023-04-29T04:57:58;99707.03;;;7.11;100.00
28079;BME280;15388;42.238;24.684;2023-04-29T05:00:23;99705.78;;;7.04;100.00
28079;BME280;15388;42.238;24.684;2023-04-29T05:02:48;99700.56;;;7.16;100.00
28079;BME280;15388;42.238;24.684;2023-04-29T05:05:14;99704.91;;;7.17;100.00
28079;BME280;15388;42.238;24.684;2023-04-29T05:07:39;99696.22;;;7.14;100.00
28079;BME280;15388;42.238;24.684;2023-04-29T05:10:05;99709.53;;;7.26;100.00
28079;BME280;15388;42.238;24.684;2023-04-29T05:12:32;99699.97;;;7.36;100.00
28079;BME280;15388;42.238;24.684;2023-04-29T05:14:59;99702.13;;;7.31;100.00
28079;BME280;15388;42.238;24.684;2023-04-29T05:17:25;99699.25;;;7.34;100.00
28079;BME280;15388;42.238;24.684;2023-04-29T05:19:51;99689.59;;;7.33;100.00
28079;BME280;15388;42.238;24.684;2023-04-29T05:22:16;99673.50;;;7.36;100.00
28079;BME280;15388;42.238;24.684;2023-04-29T05:24:41;99685.22;;;7.45;100.00
28079;BME280;15388;42.238;24.684;2023-04-29T05:27:07;99678.56;;;7.39;100.00
28079;BME280;15388;42.238;24.684;2023-04-29T05:29:32;99676.94;;;7.50;100.00
28079;BME280;15388;42.238;24.684;2023-04-29T05:31:57;99678.63;;;7.51;100.00
28079;BME280;15388;42.238;24.684;2023-04-29T05:34:23;99675.53;;;7.57;100.00
28079;BME280;15388;42.238;24.684;2023-04-29T05:36:49;99673.34;;;7.62;100.00
28079;BME280;15388;42.238;24.684;2023-04-29T05:39:14;99676.31;;;7.71;100.00
28079;BME280;15388;42.238;24.684;2023-04-29T05:41:40;99677.13;;;7.71;100.00
28079;BME280;15388;42.238;24.684;2023-04-29T05:44:05;99673.91;;;7.79;100.00
28079;BME280;15388;42.238;24.684;2023-04-29T05:46:30;99676.59;;;7.90;100.00
28079;BME280;15388;42.238;24.684;2023-04-29T05:48:56;99682.44;;;8.07;100.00
28079;BME280;15388;42.238;24.684;2023-04-29T05:51:21;99668.34;;;8.18;100.00
28079;BME280;15388;42.238;24.684;2023-04-29T05:53:47;99688.13;;;8.25;100.00
28079;BME280;15388;42.238;24.684;2023-04-29T05:56:12;99671.38;;;8.36;99.50
28079;BME280;15388;42.238;24.684;2023-04-29T05:58:37;99675.28;;;8.55;96.09
28079;BME280;15388;42.238;24.684;2023-04-29T06:01:03;99675.28;;;8.78;95.74
28079;BME280;15388;42.238;24.684;2023-04-29T06:03:28;99669.22;;;8.99;95.85
28079;BME280;15388;42.238;24.684;2023-04-29T06:05:54;99666.50;;;9.22;95.96
28079;BME280;15388;42.238;24.684;2023-04-29T06:08:20;99670.59;;;9.37;94.75
28079;BME280;15388;42.238;24.684;2023-04-29T06:10:45;99662.34;;;9.52;94.55
28079;BME280;15388;42.238;24.684;2023-04-29T06:13:11;99667.66;;;9.73;92.24
28079;BME280;15388;42.238;24.684;2023-04-29T06:15:36;99657.28;;;9.91;91.03
28079;BME280;15388;42.238;24.684;2023-04-29T06:18:02;99653.22;;;10.09;89.57
28079;BME280;15388;42.238;24.684;2023-04-29T06:20:28;99658.19;;;10.23;89.01
28079;BME280;15388;42.238;24.684;2023-04-29T06:22:53;99665.97;;;10.36;83.38
28079;BME280;15388;42.238;24.684;2023-04-29T06:25:19;99661.63;;;10.35;80.93
28079;BME280;15388;42.238;24.684;2023-04-29T06:27:44;99666.41;;;10.41;83.90
28079;BME280;15388;42.238;24.684;2023-04-29T06:30:10;99663.00;;;10.51;81.95
28079;BME280;15388;42.238;24.684;2023-04-29T06:32:37;99658.41;;;10.41;77.31
28079;BME280;15388;42.238;24.684;2023-04-29T06:35:03;99657.41;;;10.54;78.16
28079;BME280;15388;42.238;24.684;2023-04-29T06:37:29;99658.56;;;10.61;78.42
28079;BME280;15388;42.238;24.684;2023-04-29T06:39:54;99655.19;;;10.69;76.17
28079;BME280;15388;42.238;24.684;2023-04-29T06:42:20;99651.72;;;10.68;77.83
28079;BME280;15388;42.238;24.684;2023-04-29T06:44:45;99650.31;;;10.74;76.11
28079;BME280;15388;42.238;24.684;2023-04-29T06:47:11;99649.81;;;10.90;77.43
28079;BME280;15388;42.238;24.684;2023-04-29T06:49:36;99636.66;;;10.99;74.06
28079;BME280;15388;42.238;24.684;2023-04-29T06:52:01;99631.78;;;11.24;73.58
28079;BME280;15388;42.238;24.684;2023-04-29T06:54:27;99639.09;;;11.41;73.13
28079;BME280;15388;42.238;24.684;2023-04-29T06:56:53;99624.50;;;11.65;71.97
28079;BME280;15388;42.238;24.684;2023-04-29T06:59:20;99621.09;;;11.93;69.97
28079;BME280;15388;42.238;24.684;2023-04-29T07:01:45;99606.50;;;12.07;68.90
28079;BME280;15388;42.238;24.684;2023-04-29T07:04:10;99620.13;;;12.42;70.11
28079;BME280;15388;42.238;24.684;2023-04-29T07:06:37;99623.41;;;12.64;67.42
28079;BME280;15388;42.238;24.684;2023-04-29T07:09:03;99624.16;;;12.84;64.45
28079;BME280;15388;42.238;24.684;2023-04-29T07:11:28;99616.53;;;12.89;65.38
28079;BME280;15388;42.238;24.684;2023-04-29T07:13:54;99627.56;;;13.22;67.23
28079;BME280;15388;42.238;24.684;2023-04-29T07:16:19;99618.47;;;13.33;62.93
28079;BME280;15388;42.238;24.684;2023-04-29T07:18:46;99614.84;;;13.53;62.43
28079;BME280;15388;42.238;24.684;2023-04-29T07:21:12;99615.94;;;13.68;60.48
28079;BME280;15388;42.238;24.684;2023-04-29T07:23:38;99614.59;;;13.64;61.75
28079;BME280;15388;42.238;24.684;2023-04-29T07:26:15;99617.31;;;13.18;59.20
28079;BME280;15388;42.238;24.684;2023-04-29T07:28:41;99606.88;;;13.06;59.43
28079;BME280;15388;42.238;24.684;2023-04-29T07:31:07;99615.50;;;13.18;60.47
28079;BME280;15388;42.238;24.684;2023-04-29T07:33:34;99612.06;;;13.44;62.15
28079;BME280;15388;42.238;24.684;2023-04-29T07:36:00;99606.19;;;13.59;59.87
28079;BME280;15388;42.238;24.684;2023-04-29T07:38:25;99619.47;;;13.87;57.88
28079;BME280;15388;42.238;24.684;2023-04-29T07:40:51;99621.81;;;14.17;58.38
28079;BME280;15388;42.238;24.684;2023-04-29T07:43:16;99609.63;;;14.22;55.97
28079;BME280;15388;42.238;24.684;2023-04-29T07:45:42;99604.69;;;14.36;55.58
28079;BME280;15388;42.238;24.684;2023-04-29T07:48:07;99607.34;;;14.36;55.71
28079;BME280;15388;42.238;24.684;2023-04-29T07:50:33;99607.19;;;14.37;56.61
28079;BME280;15388;42.238;24.684;2023-04-29T07:53:01;99609.44;;;14.50;54.59
28079;BME280;15388;42.238;24.684;2023-04-29T07:55:26;99601.72;;;14.47;53.06
28079;BME280;15388;42.238;24.684;2023-04-29T07:57:54;99599.94;;;14.64;54.64
28079;BME280;15388;42.238;24.684;2023-04-29T08:00:20;99599.53;;;14.77;52.17
28079;BME280;15388;42.238;24.684;2023-04-29T08:02:46;99594.84;;;14.88;53.17
28079;BME280;15388;42.238;24.684;2023-04-29T08:05:13;99599.59;;;15.11;53.52
28079;BME280;15388;42.238;24.684;2023-04-29T08:07:39;99599.28;;;15.31;52.21
28079;BME280;15388;42.238;24.684;2023-04-29T08:10:05;99595.94;;;15.45;51.00
28079;BME280;15388;42.238;24.684;2023-04-29T08:12:30;99589.06;;;15.51;50.86
28079;BME280;15388;42.238;24.684;2023-04-29T08:14:55;99589.06;;;15.68;49.93
28079;BME280;15388;42.238;24.684;2023-04-29T08:17:22;99586.56;;;15.83;52.33
28079;BME280;15388;42.238;24.684;2023-04-29T08:19:47;99578.97;;;15.95;50.64
28079;BME280;15388;42.238;24.684;2023-04-29T08:22:13;99575.25;;;16.12;49.85
28079;BME280;15388;42.238;24.684;2023-04-29T08:24:39;99563.78;;;16.35;48.96
28079;BME280;15388;42.238;24.684;2023-04-29T08:27:05;99575.94;;;16.54;49.41
28079;BME280;15388;42.238;24.684;2023-04-29T08:29:31;99573.66;;;16.43;48.88
28079;BME280;15388;42.238;24.684;2023-04-29T08:31:59;99573.59;;;16.60;48.89
28079;BME280;15388;42.238;24.684;2023-04-29T08:34:25;99564.72;;;16.83;47.19
28079;BME280;15388;42.238;24.684;2023-04-29T08:36:51;99563.47;;;16.70;46.60
28079;BME280;15388;42.238;24.684;2023-04-29T08:39:16;99556.97;;;16.56;46.27
28079;BME280;15388;42.238;24.684;2023-04-29T08:41:42;99568.34;;;16.66;46.23
28079;BME280;15388;42.238;24.684;2023-04-29T08:44:09;99549.97;;;16.78;47.54
28079;BME280;15388;42.238;24.684;2023-04-29T08:46:35;99556.53;;;17.08;46.94
28079;BME280;15388;42.238;24.684;2023-04-29T08:49:01;99556.94;;;17.43;45.33
28079;BME280;15388;42.238;24.684;2023-04-29T08:51:28;99552.25;;;17.60;44.08
28079;BME280;15388;42.238;24.684;2023-04-29T08:53:55;99548.28;;;17.71;44.44
28079;BME280;15388;42.238;24.684;2023-04-29T08:56:20;99547.91;;;17.89;45.20
28079;BME280;15388;42.238;24.684;2023-04-29T08:58:49;99542.56;;;18.04;44.30
28079;BME280;15388;42.238;24.684;2023-04-29T09:01:21;99529.00;;;18.13;42.81
28079;BME280;15388;42.238;24.684;2023-04-29T09:06:21;99525.16;;;18.37;43.72
28079;BME280;15388;42.238;24.684;2023-04-29T09:08:46;99538.34;;;18.47;43.10
28079;BME280;15388;42.238;24.684;2023-04-29T09:11:13;99529.63;;;18.45;41.57
28079;BME280;15388;42.238;24.684;2023-04-29T09:13:38;99535.94;;;18.52;41.87
28079;BME280;15388;42.238;24.684;2023-04-29T09:16:09;99521.47;;;18.75;41.55
28079;BME280;15388;42.238;24.684;2023-04-29T09:18:42;99524.31;;;18.89;40.83
28079;BME280;15388;42.238;24.684;2023-04-29T09:21:22;99513.50;;;18.67;39.24
28079;BME280;15388;42.238;24.684;2023-04-29T09:23:50;99501.69;;;18.68;41.23
28079;BME280;15388;42.238;24.684;2023-04-29T09:26:16;99497.72;;;18.86;41.04
28079;BME280;15388;42.238;24.684;2023-04-29T09:28:42;99487.06;;;18.99;39.28
28079;BME280;15388;42.238;24.684;2023-04-29T09:31:12;99492.31;;;19.29;39.92
28079;BME280;15388;42.238;24.684;2023-04-29T09:33:52;99488.16;;;19.55;39.37
28079;BME280;15388;42.238;24.684;2023-04-29T09:36:43;99483.72;;;19.76;37.82
28079;BME280;15388;42.238;24.684;2023-04-29T09:39:17;99477.44;;;19.69;37.39
28079;BME280;15388;42.238;24.684;2023-04-29T09:44:15;99460.03;;;20.07;36.16
28079;BME280;15388;42.238;24.684;2023-04-29T09:46:41;99464.53;;;19.99;36.13
28079;BME280;15388;42.238;24.684;2023-04-29T09:49:23;99455.66;;;20.06;36.91
28079;BME280;15388;42.238;24.684;2023-04-29T09:52:02;99453.66;;;20.28;37.77
28079;BME280;15388;42.238;24.684;2023-04-29T09:54:30;99448.09;;;20.43;37.74
28079;BME280;15388;42.238;24.684;2023-04-29T09:56:58;99444.38;;;20.65;36.80
28079;BME280;15388;42.238;24.684;2023-04-29T09:59:24;99436.94;;;20.87;35.84
28079;BME280;15388;42.238;24.684;2023-04-29T10:01:55;99442.81;;;20.91;35.18
28079;BME280;15388;42.238;24.684;2023-04-29T10:04:22;99437.59;;;21.09;35.75
28079;BME280;15388;42.238;24.684;2023-04-29T10:06:48;99436.97;;;21.14;34.44
28079;BME280;15388;42.238;24.684;2023-04-29T10:09:15;99424.47;;;20.93;32.04
28079;BME280;15388;42.238;24.684;2023-04-29T10:11:43;99426.09;;;20.67;33.08
28079;BME280;15388;42.238;24.684;2023-04-29T10:14:12;99427.34;;;20.71;34.38
28079;BME280;15388;42.238;24.684;2023-04-29T10:19:16;99417.78;;;20.75;32.53
28079;BME280;15388;42.238;24.684;2023-04-29T10:21:43;99419.91;;;20.93;32.77
28079;BME280;15388;42.238;24.684;2023-04-29T10:24:10;99411.78;;;21.00;30.70
28079;BME280;15388;42.238;24.684;2023-04-29T10:26:38;99410.31;;;21.18;31.56
28079;BME280;15388;42.238;24.684;2023-04-29T10:29:04;99405.72;;;21.38;31.21
28079;BME280;15388;42.238;24.684;2023-04-29T10:31:30;99396.50;;;21.60;29.04
28079;BME280;15388;42.238;24.684;2023-04-29T10:33:57;99394.75;;;21.93;30.33
28079;BME280;15388;42.238;24.684;2023-04-29T10:36:27;99384.19;;;22.17;30.82
28079;BME280;15388;42.238;24.684;2023-04-29T10:39:00;99398.88;;;22.41;31.36
28079;BME280;15388;42.238;24.684;2023-04-29T10:41:35;99386.47;;;22.52;28.92
28079;BME280;15388;42.238;24.684;2023-04-29T10:44:02;99385.91;;;22.75;28.97
28079;BME280;15388;42.238;24.684;2023-04-29T10:46:28;99379.78;;;22.61;26.93
28079;BME280;15388;42.238;24.684;2023-04-29T10:49:02;99387.69;;;22.88;25.94
28079;BME280;15388;42.238;24.684;2023-04-29T10:51:43;99380.44;;;22.82;22.56
28079;BME280;15388;42.238;24.684;2023-04-29T10:54:12;99375.69;;;22.77;26.12
28079;BME280;15388;42.238;24.684;2023-04-29T10:56:40;99364.00;;;23.02;27.20
28079;BME280;15388;42.238;24.684;2023-04-29T11:02:01;99358.81;;;23.20;26.86
28079;BME280;15388;42.238;24.684;2023-04-29T11:04:26;99359.00;;;23.44;27.90
28079;BME280;15388;42.238;24.684;2023-04-29T11:06:55;99362.44;;;23.32;27.38
28079;BME280;15388;42.238;24.684;2023-04-29T11:09:27;99352.97;;;23.41;27.13
28079;BME280;15388;42.238;24.684;2023-04-29T11:12:02;99343.00;;;23.54;27.40
28079;BME280;15388;42.238;24.684;2023-04-29T11:14:34;99336.31;;;23.57;27.25
28079;BME280;15388;42.238;24.684;2023-04-29T11:19:36;99333.00;;;23.85;27.71
28079;BME280;15388;42.238;24.684;2023-04-29T11:24:53;99317.72;;;24.34;27.09
28079;BME280;15388;42.238;24.684;2023-04-29T11:27:22;99318.41;;;24.29;25.53
28079;BME280;15388;42.238;24.684;2023-04-29T11:29:51;99316.34;;;24.12;26.17
28079;BME280;15388;42.238;24.684;2023-04-29T11:32:19;99311.94;;;24.11;26.62
28079;BME280;15388;42.238;24.684;2023-04-29T11:34:46;99315.56;;;24.36;25.93
28079;BME280;15388;42.238;24.684;2023-04-29T11:37:11;99287.94;;;24.39;26.87
28079;BME280;15388;42.238;24.684;2023-04-29T11:39:37;99298.94;;;24.80;26.61
28079;BME280;15388;42.238;24.684;2023-04-29T11:42:08;99306.50;;;24.78;26.29
28079;BME280;15388;42.238;24.684;2023-04-29T11:44:34;99301.22;;;24.95;26.44
28079;BME280;15388;42.238;24.684;2023-04-29T11:47:05;99298.13;;;25.03;26.08
28079;BME280;15388;42.238;24.684;2023-04-29T11:49:34;99301.88;;;25.26;25.64
28079;BME280;15388;42.238;24.684;2023-04-29T11:52:01;99287.75;;;25.41;25.36
28079;BME280;15388;42.238;24.684;2023-04-29T11:54:30;99281.53;;;25.29;25.71
28079;BME280;15388;42.238;24.684;2023-04-29T11:56:57;99287.97;;;24.99;25.07
28079;BME280;15388;42.238;24.684;2023-04-29T11:59:22;99284.53;;;24.67;25.53
28079;BME280;15388;42.238;24.684;2023-04-29T12:01:49;99276.38;;;24.55;25.92
28079;BME280;15388;42.238;24.684;2023-04-29T12:04:15;99273.63;;;24.43;25.82
28079;BME280;15388;42.238;24.684;2023-04-29T12:06:41;99267.50;;;24.48;26.86
28079;BME280;15388;42.238;24.684;2023-04-29T12:09:06;99254.25;;;24.52;26.25
28079;BME280;15388;42.238;24.684;2023-04-29T12:11:33;99262.16;;;24.41;26.32
28079;BME280;15388;42.238;24.684;2023-04-29T12:13:59;99260.84;;;24.56;25.85
28079;BME280;15388;42.238;24.684;2023-04-29T12:16:27;99252.34;;;24.40;25.04
28079;BME280;15388;42.238;24.684;2023-04-29T12:18:53;99247.16;;;24.51;25.94
28079;BME280;15388;42.238;24.684;2023-04-29T12:21:20;99248.69;;;24.47;26.71
28079;BME280;15388;42.238;24.684;2023-04-29T12:23:46;99245.38;;;24.45;25.95
28079;BME280;15388;42.238;24.684;2023-04-29T12:26:11;99251.75;;;24.26;26.67
28079;BME280;15388;42.238;24.684;2023-04-29T12:28:39;99245.50;;;24.38;25.66
28079;BME280;15388;42.238;24.684;2023-04-29T12:31:08;99241.94;;;24.13;26.25
28079;BME280;15388;42.238;24.684;2023-04-29T12:33:35;99238.28;;;24.32;26.38
28079;BME280;15388;42.238;24.684;2023-04-29T12:36:00;99227.31;;;24.38;26.62
28079;BME280;15388;42.238;24.684;2023-04-29T12:38:28;99227.31;;;24.38;26.35
28079;BME280;15388;42.238;24.684;2023-04-29T12:40:59;99226.47;;;23.83;26.96
28079;BME280;15388;42.238;24.684;2023-04-29T12:43:31;99225.41;;;23.96;26.91
28079;BME280;15388;42.238;24.684;2023-04-29T12:46:05;99215.00;;;24.24;27.93
28079;BME280;15388;42.238;24.684;2023-04-29T12:48:32;99213.09;;;24.36;27.10
28079;BME280;15388;42.238;24.684;2023-04-29T12:50:59;99209.78;;;24.46;27.09
28079;BME280;15388;42.238;24.684;2023-04-29T12:53:26;99214.53;;;24.51;27.21
28079;BME280;15388;42.238;24.684;2023-04-29T12:55:53;99211.81;;;24.51;26.49
28079;BME280;15388;42.238;24.684;2023-04-29T12:58:18;99213.22;;;24.53;26.22
28079;BME280;15388;42.238;24.684;2023-04-29T13:00:44;99206.59;;;24.25;26.38
28079;BME280;15388;42.238;24.684;2023-04-29T13:03:10;99199.69;;;24.11;27.19
28079;BME280;15388;42.238;24.684;2023-04-29T13:05:35;99202.63;;;23.85;27.40
28079;BME280;15388;42.238;24.684;2023-04-29T13:08:01;99192.09;;;23.77;27.88
28079;BME280;15388;42.238;24.684;2023-04-29T13:10:26;99188.69;;;23.51;28.15
28079;BME280;15388;42.238;24.684;2023-04-29T13:12:55;99191.91;;;23.48;28.24
28079;BME280;15388;42.238;24.684;2023-04-29T13:15:21;99192.13;;;23.58;27.94
28079;BME280;15388;42.238;24.684;2023-04-29T13:17:46;99175.31;;;23.37;27.87